sensor_id;sensor_type;location;lat;lon;timestamp;P1;durP1;ratioP1;P2;durP2;ratioP2
51216;SDS011;37283;49.760;8.648;2022-08-02T05:02:03;2.67;;;1.55;;
51216;SDS011;37283;49.760;8.648;2022-08-02T05:04:29;2.03;;;1.80;;
51216;SDS011;37283;49.760;8.648;2022-08-02T05:06:56;2.88;;;1.70;;
51216;SDS011;37283;49.760;8.648;2022-08-02T05:09:22;3.03;;;1.90;;
51216;SDS011;37283;49.760;8.648;2022-08-02T05:11:49;2.00;;;1.60;;
51216;SDS011;37283;49.760;8.648;2022-08-02T05:14:20;5.07;;;1.98;;
51216;SDS011;37283;49.760;8.648;2022-08-02T05:16:46;2.00;;;1.80;;
51216;SDS011;37283;49.760;8.648;2022-08-02T05:19:13;2.72;;;1.90;;
51216;SDS011;37283;49.760;8.648;2022-08-02T05:21:39;2.83;;;1.95;;
51216;SDS011;37283;49.760;8.648;2022-08-02T05:24:06;2.47;;;1.80;;
51216;SDS011;37283;49.760;8.648;2022-08-02T05:26:33;2.00;;;1.80;;
51216;SDS011;37283;49.760;8.648;2022-08-02T05:28:59;2.10;;;1.90;;
51216;SDS011;37283;49.760;8.648;2022-08-02T05:31:25;3.60;;;1.88;;
51216;SDS011;37283;49.760;8.648;2022-08-02T05:33:52;3.55;;;1.67;;
51216;SDS011;37283;49.760;8.648;2022-08-02T05:36:18;2.35;;;1.88;;
51216;SDS011;37283;49.760;8.648;2022-08-02T05:38:46;2.60;;;2.05;;
51216;SDS011;37283;49.760;8.648;2022-08-02T05:41:16;2.30;;;2.03;;
51216;SDS011;37283;49.760;8.648;2022-08-02T05:43:44;2.75;;;2.10;;
51216;SDS011;37283;49.760;8.648;2022-08-02T05:46:11;3.92;;;2.40;;
51216;SDS011;37283;49.760;8.648;2022-08-02T05:48:37;5.80;;;2.45;;
51216;SDS011;37283;49.760;8.648;2022-08-02T05:51:05;2.47;;;2.05;;
51216;SDS011;37283;49.760;8.648;2022-08-02T05:56:28;2.67;;;2.15;;
51216;SDS011;37283;49.760;8.648;2022-08-02T05:59:12;2.60;;;1.83;;
51216;SDS011;37283;49.760;8.648;2022-08-02T06:01:44;2.95;;;2.38;;
51216;SDS011;37283;49.760;8.648;2022-08-02T06:04:19;2.45;;;2.22;;
51216;SDS011;37283;49.760;8.648;2022-08-02T06:06:52;2.58;;;1.92;;
51216;SDS011;37283;49.760;8.648;2022-08-02T06:09:20;2.42;;;2.00;;
51216;SDS011;37283;49.760;8.648;2022-08-02T06:11:52;3.80;;;2.20;;
51216;SDS011;37283;49.760;8.648;2022-08-02T06:14:30;5.22;;;2.30;;
51216;SDS011;37283;49.760;8.648;2022-08-02T06:16:58;3.15;;;2.30;;
51216;SDS011;37283;49.760;8.648;2022-08-02T06:19:30;3.42;;;2.20;;
51216;SDS011;37283;49.760;8.648;2022-08-02T06:22:17;5.30;;;2.17;;
51216;SDS011;37283;49.760;8.648;2022-08-02T06:25:03;2.30;;;2.10;;
51216;SDS011;37283;49.760;8.648;2022-08-02T06:27:30;4.25;;;2.30;;
51216;SDS011;37283;49.760;8.648;2022-08-02T06:29:57;3.70;;;2.35;;
51216;SDS011;37283;49.760;8.648;2022-08-02T06:32:23;3.60;;;2.20;;
51216;SDS011;37283;49.760;8.648;2022-08-02T06:34:51;2.97;;;2.10;;
51216;SDS011;37283;49.760;8.648;2022-08-02T06:37:23;5.55;;;2.38;;
51216;SDS011;37283;49.760;8.648;2022-08-02T06:42:43;4.35;;;2.28;;
51216;SDS011;37283;49.760;8.648;2022-08-02T06:45:14;3.03;;;2.53;;
51216;SDS011;37283;49.760;8.648;2022-08-02T06:47:40;2.03;;;1.83;;
51216;SDS011;37283;49.760;8.648;2022-08-02T06:50:07;4.07;;;1.90;;
51216;SDS011;37283;49.760;8.648;2022-08-02T06:52:33;3.05;;;2.17;;
51216;SDS011;37283;49.760;8.648;2022-08-02T06:55:01;2.25;;;1.95;;
51216;SDS011;37283;49.760;8.648;2022-08-02T06:57:29;2.13;;;1.63;;
51216;SDS011;37283;49.760;8.648;2022-08-02T06:59:56;4.07;;;2.10;;
51216;SDS011;37283;49.760;8.648;2022-08-02T07:02:26;2.50;;;1.90;;
51216;SDS011;37283;49.760;8.648;2022-08-02T07:04:53;4.13;;;1.85;;
51216;SDS011;37283;49.760;8.648;2022-08-02T07:07:19;2.35;;;2.05;;
51216;SDS011;37283;49.760;8.648;2022-08-02T07:09:46;2.60;;;1.80;;
51216;SDS011;37283;49.760;8.648;2022-08-02T07:12:26;4.43;;;1.92;;
51216;SDS011;37283;49.760;8.648;2022-08-02T07:15:05;4.07;;;2.20;;
51216;SDS011;37283;49.760;8.648;2022-08-02T07:20:24;2.10;;;1.90;;
51216;SDS011;37283;49.760;8.648;2022-08-02T07:22:51;2.70;;;1.85;;
51216;SDS011;37283;49.760;8.648;2022-08-02T07:25:17;3.75;;;2.00;;
51216;SDS011;37283;49.760;8.648;2022-08-02T07:27:44;3.15;;;1.80;;
51216;SDS011;37283;49.760;8.648;2022-08-02T07:30:11;4.18;;;1.88;;
51216;SDS011;37283;49.760;8.648;2022-08-02T07:32:38;2.58;;;1.90;;
51216;SDS011;37283;49.760;8.648;2022-08-02T07:35:05;5.85;;;2.00;;
51216;SDS011;37283;49.760;8.648;2022-08-02T07:37:33;2.00;;;1.75;;
51216;SDS011;37283;49.760;8.648;2022-08-02T07:40:20;2.35;;;1.83;;
51216;SDS011;37283;49.760;8.648;2022-08-02T07:42:48;2.80;;;1.88;;
51216;SDS011;37283;49.760;8.648;2022-08-02T07:45:17;2.63;;;1.60;;
51216;SDS011;37283;49.760;8.648;2022-08-02T07:47:44;3.72;;;2.00;;
51216;SDS011;37283;49.760;8.648;2022-08-02T07:50:11;2.28;;;1.75;;
51216;SDS011;37283;49.760;8.648;2022-08-02T07:52:39;1.90;;;1.70;;
51216;SDS011;37283;49.760;8.648;2022-08-02T07:55:06;2.20;;;1.85;;
51216;SDS011;37283;49.760;8.648;2022-08-02T07:57:33;3.20;;;1.70;;
51216;SDS011;37283;49.760;8.648;2022-08-02T08:00:00;5.13;;;1.60;;
51216;SDS011;37283;49.760;8.648;2022-08-02T08:02:36;4.55;;;1.50;;
51216;SDS011;37283;49.760;8.648;2022-08-02T08:05:03;2.63;;;1.60;;
51216;SDS011;37283;49.760;8.648;2022-08-02T08:07:30;1.92;;;1.10;;
51216;SDS011;37283;49.760;8.648;2022-08-02T08:09:56;2.03;;;0.90;;
51216;SDS011;37283;49.760;8.648;2022-08-02T08:12:24;2.57;;;1.00;;
51216;SDS011;37283;49.760;8.648;2022-08-02T08:14:51;1.23;;;1.10;;
51216;SDS011;37283;49.760;8.648;2022-08-02T08:17:18;1.63;;;1.13;;
51216;SDS011;37283;49.760;8.648;2022-08-02T08:19:44;1.08;;;0.95;;
51216;SDS011;37283;49.760;8.648;2022-08-02T08:22:17;1.42;;;1.15;;
51216;SDS011;37283;49.760;8.648;2022-08-02T08:24:43;1.50;;;0.88;;
51216;SDS011;37283;49.760;8.648;2022-08-02T08:27:10;9.57;;;1.02;;
51216;SDS011;37283;49.760;8.648;2022-08-02T08:29:40;1.20;;;0.90;;
51216;SDS011;37283;49.760;8.648;2022-08-02T08:32:07;1.95;;;1.10;;
51216;SDS011;37283;49.760;8.648;2022-08-02T08:34:41;1.95;;;0.80;;
51216;SDS011;37283;49.760;8.648;2022-08-02T08:37:07;1.35;;;0.90;;
51216;SDS011;37283;49.760;8.648;2022-08-02T08:39:34;1.33;;;0.80;;
51216;SDS011;37283;49.760;8.648;2022-08-02T08:42:20;1.63;;;0.70;;
51216;SDS011;37283;49.760;8.648;2022-08-02T08:44:47;1.35;;;1.00;;
51216;SDS011;37283;49.760;8.648;2022-08-02T08:47:13;2.58;;;1.00;;
51216;SDS011;37283;49.760;8.648;2022-08-02T08:49:40;1.38;;;1.00;;
51216;SDS011;37283;49.760;8.648;2022-08-02T08:52:18;1.60;;;1.00;;
51216;SDS011;37283;49.760;8.648;2022-08-02T08:54:45;2.88;;;1.00;;
51216;SDS011;37283;49.760;8.648;2022-08-02T08:57:14;1.25;;;1.02;;
51216;SDS011;37283;49.760;8.648;2022-08-02T08:59:41;1.27;;;0.88;;
51216;SDS011;37283;49.760;8.648;2022-08-02T09:02:08;1.10;;;0.90;;
51216;SDS011;37283;49.760;8.648;2022-08-02T09:04:48;1.73;;;0.93;;
51216;SDS011;37283;49.760;8.648;2022-08-02T09:07:20;1.00;;;0.80;;
51216;SDS011;37283;49.760;8.648;2022-08-02T09:09:47;1.00;;;0.80;;
51216;SDS011;37283;49.760;8.648;2022-08-02T09:12:14;2.78;;;1.23;;
51216;SDS011;37283;49.760;8.648;2022-08-02T09:14:42;1.50;;;0.90;;
51216;SDS011;37283;49.760;8.648;2022-08-02T09:17:09;1.55;;;0.85;;
51216;SDS011;37283;49.760;8.648;2022-08-02T09:19:37;2.05;;;1.10;;
51216;SDS011;37283;49.760;8.648;2022-08-02T09:22:12;1.75;;;0.80;;
51216;SDS011;37283;49.760;8.648;2022-08-02T09:27:17;1.00;;;0.90;;
51216;SDS011;37283;49.760;8.648;2022-08-02T09:29:53;1.48;;;0.93;;
51216;SDS011;37283;49.760;8.648;2022-08-02T09:32:45;1.92;;;1.02;;
51216;SDS011;37283;49.760;8.648;2022-08-02T09:35:29;3.15;;;0.90;;
51216;SDS011;37283;49.760;8.648;2022-08-02T09:38:27;1.00;;;0.70;;
51216;SDS011;37283;49.760;8.648;2022-08-02T09:40:54;2.85;;;1.02;;
51216;SDS011;37283;49.760;8.648;2022-08-02T09:43:34;1.45;;;1.00;;
51216;SDS011;37283;49.760;8.648;2022-08-02T09:46:28;1.30;;;0.82;;
51216;SDS011;37283;49.760;8.648;2022-08-02T09:48:56;2.15;;;1.13;;
51216;SDS011;37283;49.760;8.648;2022-08-02T09:51:30;1.27;;;0.93;;
51216;SDS011;37283;49.760;8.648;2022-08-02T09:54:02;1.50;;;0.93;;
51216;SDS011;37283;49.760;8.648;2022-08-02T09:56:41;1.30;;;0.98;;
51216;SDS011;37283;49.760;8.648;2022-08-02T09:59:08;2.10;;;0.90;;
51216;SDS011;37283;49.760;8.648;2022-08-02T10:01:35;1.27;;;1.05;;
51216;SDS011;37283;49.760;8.648;2022-08-02T10:04:06;3.33;;;0.90;;
51216;SDS011;37283;49.760;8.648;2022-08-02T10:06:46;2.58;;;1.00;;
51216;SDS011;37283;49.760;8.648;2022-08-02T10:09:14;1.23;;;0.90;;
51216;SDS011;37283;49.760;8.648;2022-08-02T10:11:40;2.67;;;0.80;;
51216;SDS011;37283;49.760;8.648;2022-08-02T10:14:08;2.22;;;0.95;;
51216;SDS011;37283;49.760;8.648;2022-08-02T10:16:39;2.88;;;1.00;;
51216;SDS011;37283;49.760;8.648;2022-08-02T10:19:07;1.90;;;1.00;;
51216;SDS011;37283;49.760;8.648;2022-08-02T10:21:51;2.20;;;0.98;;
51216;SDS011;37283;49.760;8.648;2022-08-02T10:24:22;1.52;;;1.02;;
51216;SDS011;37283;49.760;8.648;2022-08-02T10:26:52;2.17;;;0.90;;
51216;SDS011;37283;49.760;8.648;2022-08-02T10:29:29;2.33;;;0.90;;
51216;SDS011;37283;49.760;8.648;2022-08-02T10:32:19;2.97;;;0.80;;
51216;SDS011;37283;49.760;8.648;2022-08-02T10:34:50;1.10;;;1.00;;
51216;SDS011;37283;49.760;8.648;2022-08-02T10:37:20;3.85;;;1.35;;
51216;SDS011;37283;49.760;8.648;2022-08-02T10:39:48;1.17;;;0.90;;
51216;SDS011;37283;49.760;8.648;2022-08-02T10:45:16;1.58;;;0.98;;
51216;SDS011;37283;49.760;8.648;2022-08-02T10:47:57;2.38;;;1.08;;
51216;SDS011;37283;49.760;8.648;2022-08-02T10:53:29;1.45;;;0.93;;
51216;SDS011;37283;49.760;8.648;2022-08-02T10:55:58;1.10;;;0.80;;
51216;SDS011;37283;49.760;8.648;2022-08-02T10:58:29;1.73;;;1.00;;
51216;SDS011;37283;49.760;8.648;2022-08-02T11:00:58;1.95;;;1.23;;
51216;SDS011;37283;49.760;8.648;2022-08-02T11:03:36;1.20;;;0.80;;
51216;SDS011;37283;49.760;8.648;2022-08-02T11:09:23;2.45;;;1.10;;
51216;SDS011;37283;49.760;8.648;2022-08-02T11:12:00;1.27;;;0.68;;
51216;SDS011;37283;49.760;8.648;2022-08-02T11:14:28;1.52;;;0.85;;
51216;SDS011;37283;49.760;8.648;2022-08-02T11:19:22;0.95;;;0.85;;
51216;SDS011;37283;49.760;8.648;2022-08-02T11:24:31;0.80;;;0.70;;
51216;SDS011;37283;49.760;8.648;2022-08-02T11:26:59;1.45;;;0.98;;
51216;SDS011;37283;49.760;8.648;2022-08-02T11:29:44;1.60;;;0.70;;
51216;SDS011;37283;49.760;8.648;2022-08-02T11:32:18;1.48;;;1.00;;
51216;SDS011;37283;49.760;8.648;2022-08-02T11:34:56;1.70;;;0.90;;
51216;SDS011;37283;49.760;8.648;2022-08-02T11:37:30;1.63;;;0.80;;
51216;SDS011;37283;49.760;8.648;2022-08-02T11:39:58;2.97;;;1.10;;
51216;SDS011;37283;49.760;8.648;2022-08-02T11:42:34;1.73;;;0.90;;
51216;SDS011;37283;49.760;8.648;2022-08-02T11:45:03;1.55;;;1.00;;
51216;SDS011;37283;49.760;8.648;2022-08-02T11:47:53;1.20;;;1.00;;
51216;SDS011;37283;49.760;8.648;2022-08-02T11:50:20;1.13;;;0.90;;
51216;SDS011;37283;49.760;8.648;2022-08-02T11:52:55;2.45;;;0.90;;
51216;SDS011;37283;49.760;8.648;2022-08-02T11:55:29;1.10;;;0.80;;
51216;SDS011;37283;49.760;8.648;2022-08-02T11:58:01;3.92;;;1.02;;
51216;SDS011;37283;49.760;8.648;2022-08-02T12:00:31;1.08;;;0.80;;
51216;SDS011;37283;49.760;8.648;2022-08-02T12:02:57;1.85;;;0.90;;
51216;SDS011;37283;49.760;8.648;2022-08-02T12:05:24;1.35;;;0.80;;
51216;SDS011;37283;49.760;8.648;2022-08-02T12:08:11;1.70;;;0.90;;
51216;SDS011;37283;49.760;8.648;2022-08-02T12:10:45;2.00;;;0.90;;
51216;SDS011;37283;49.760;8.648;2022-08-02T12:13:13;4.85;;;1.10;;
51216;SDS011;37283;49.760;8.648;2022-08-02T12:15:41;1.45;;;1.00;;
51216;SDS011;37283;49.760;8.648;2022-08-02T12:18:16;2.80;;;1.00;;
51216;SDS011;37283;49.760;8.648;2022-08-02T12:21:02;1.00;;;0.80;;
51216;SDS011;37283;49.760;8.648;2022-08-02T12:23:36;1.00;;;0.90;;
51216;SDS011;37283;49.760;8.648;2022-08-02T12:26:26;2.47;;;0.77;;
51216;SDS011;37283;49.760;8.648;2022-08-02T12:28:54;2.95;;;0.80;;
51216;SDS011;37283;49.760;8.648;2022-08-02T12:31:37;1.10;;;0.80;;
51216;SDS011;37283;49.760;8.648;2022-08-02T12:34:21;1.92;;;0.82;;
51216;SDS011;37283;49.760;8.648;2022-08-02T12:37:01;1.20;;;0.80;;
51216;SDS011;37283;49.760;8.648;2022-08-02T12:39:37;0.95;;;0.70;;
51216;SDS011;37283;49.760;8.648;2022-08-02T12:42:08;1.83;;;0.75;;
51216;SDS011;37283;49.760;8.648;2022-08-02T12:44:37;1.80;;;1.00;;
51216;SDS011;37283;49.760;8.648;2022-08-02T12:47:21;1.05;;;0.70;;
51216;SDS011;37283;49.760;8.648;2022-08-02T12:52:46;1.98;;;0.82;;
51216;SDS011;37283;49.760;8.648;2022-08-02T12:55:23;1.80;;;0.97;;
51216;SDS011;37283;49.760;8.648;2022-08-02T12:58:13;1.67;;;0.73;;
51216;SDS011;37283;49.760;8.648;2022-08-02T13:00:43;1.77;;;0.80;;
51216;SDS011;37283;49.760;8.648;2022-08-02T13:03:18;2.72;;;0.82;;
51216;SDS011;37283;49.760;8.648;2022-08-02T13:06:05;1.48;;;0.90;;
51216;SDS011;37283;49.760;8.648;2022-08-02T13:08:53;2.60;;;0.65;;
51216;SDS011;37283;49.760;8.648;2022-08-02T13:11:21;2.00;;;0.90;;
51216;SDS011;37283;49.760;8.648;2022-08-02T13:13:48;2.13;;;0.82;;
51216;SDS011;37283;49.760;8.648;2022-08-02T13:16:14;2.15;;;0.90;;
51216;SDS011;37283;49.760;8.648;2022-08-02T13:18:41;3.67;;;0.70;;
51216;SDS011;37283;49.760;8.648;2022-08-02T13:21:08;0.70;;;0.70;;
51216;SDS011;37283;49.760;8.648;2022-08-02T13:23:56;1.27;;;1.00;;
51216;SDS011;37283;49.760;8.648;2022-08-02T13:26:22;2.63;;;0.80;;
51216;SDS011;37283;49.760;8.648;2022-08-02T13:28:53;0.95;;;0.80;;
51216;SDS011;37283;49.760;8.648;2022-08-02T13:31:20;0.82;;;0.82;;
51216;SDS011;37283;49.760;8.648;2022-08-02T13:34:05;1.35;;;0.80;;
51216;SDS011;37283;49.760;8.648;2022-08-02T13:36:33;1.88;;;0.85;;
51216;SDS011;37283;49.760;8.648;2022-08-02T13:39:01;3.75;;;0.90;;
51216;SDS011;37283;49.760;8.648;2022-08-02T13:41:30;1.00;;;0.75;;
51216;SDS011;37283;49.760;8.648;2022-08-02T13:43:57;2.03;;;0.90;;
51216;SDS011;37283;49.760;8.648;2022-08-02T13:46:36;1.42;;;0.70;;
51216;SDS011;37283;49.760;8.648;2022-08-02T13:49:11;1.40;;;1.10;;
51216;SDS011;37283;49.760;8.648;2022-08-02T13:51:45;1.48;;;0.90;;
51216;SDS011;37283;49.760;8.648;2022-08-02T13:54:12;0.98;;;0.80;;
51216;SDS011;37283;49.760;8.648;2022-08-02T13:56:42;0.90;;;0.80;;
51216;SDS011;37283;49.760;8.648;2022-08-02T13:59:09;0.80;;;0.77;;
51216;SDS011;37283;49.760;8.648;2022-08-02T14:01:56;2.05;;;0.80;;
51216;SDS011;37283;49.760;8.648;2022-08-02T14:04:24;1.52;;;0.75;;
51216;SDS011;37283;49.760;8.648;2022-08-02T14:06:50;1.13;;;0.80;;
51216;SDS011;37283;49.760;8.648;2022-08-02T14:09:17;2.25;;;0.90;;
51216;SDS011;37283;49.760;8.648;2022-08-02T14:11:44;3.10;;;0.80;;
51216;SDS011;37283;49.760;8.648;2022-08-02T14:14:11;1.10;;;0.80;;
51216;SDS011;37283;49.760;8.648;2022-08-02T14:16:42;1.58;;;0.90;;
51216;SDS011;37283;49.760;8.648;2022-08-02T14:19:09;2.05;;;0.73;;
51216;SDS011;37283;49.760;8.648;2022-08-02T14:21:42;1.90;;;1.00;;
51216;SDS011;37283;49.760;8.648;2022-08-02T14:24:18;2.88;;;0.80;;
51216;SDS011;37283;49.760;8.648;2022-08-02T14:26:46;1.55;;;0.73;;
51216;SDS011;37283;49.760;8.648;2022-08-02T14:29:15;3.35;;;1.00;;
51216;SDS011;37283;49.760;8.648;2022-08-02T14:31:41;1.48;;;0.80;;
51216;SDS011;37283;49.760;8.648;2022-08-02T14:34:10;0.85;;;0.80;;
51216;SDS011;37283;49.760;8.648;2022-08-02T14:36:37;2.45;;;0.80;;
51216;SDS011;37283;49.760;8.648;2022-08-02T14:39:04;0.85;;;0.80;;
51216;SDS011;37283;49.760;8.648;2022-08-02T14:41:30;3.17;;;0.80;;
51216;SDS011;37283;49.760;8.648;2022-08-02T14:44:18;1.00;;;0.88;;
51216;SDS011;37283;49.760;8.648;2022-08-02T14:46:45;1.77;;;0.80;;
51216;SDS011;37283;49.760;8.648;2022-08-02T14:49:12;0.70;;;0.70;;
51216;SDS011;37283;49.760;8.648;2022-08-02T14:51:51;2.13;;;0.90;;
51216;SDS011;37283;49.760;8.648;2022-08-02T14:54:18;1.50;;;0.80;;
51216;SDS011;37283;49.760;8.648;2022-08-02T14:56:44;1.60;;;0.80;;
51216;SDS011;37283;49.760;8.648;2022-08-02T14:59:13;1.50;;;0.85;;
51216;SDS011;37283;49.760;8.648;2022-08-02T15:01:40;1.33;;;0.70;;
51216;SDS011;37283;49.760;8.648;2022-08-02T15:04:07;1.48;;;0.80;;
51216;SDS011;37283;49.760;8.648;2022-08-02T15:06:33;1.10;;;0.77;;
51216;SDS011;37283;49.760;8.648;2022-08-02T15:09:00;5.45;;;1.00;;
51216;SDS011;37283;49.760;8.648;2022-08-02T15:11:26;1.40;;;0.70;;
51216;SDS011;37283;49.760;8.648;2022-08-02T15:13:53;1.73;;;1.00;;
51216;SDS011;37283;49.760;8.648;2022-08-02T15:16:24;1.20;;;0.70;;
51216;SDS011;37283;49.760;8.648;2022-08-02T15:19:11;1.02;;;0.90;;
51216;SDS011;37283;49.760;8.648;2022-08-02T15:21:38;0.95;;;0.82;;
51216;SDS011;37283;49.760;8.648;2022-08-02T15:24:07;1.23;;;0.80;;
51216;SDS011;37283;49.760;8.648;2022-08-02T15:26:33;2.53;;;0.77;;
51216;SDS011;37283;49.760;8.648;2022-08-02T15:29:00;4.72;;;1.00;;
51216;SDS011;37283;49.760;8.648;2022-08-02T15:31:27;1.80;;;0.85;;
51216;SDS011;37283;49.760;8.648;2022-08-02T15:33:59;2.13;;;0.98;;
51216;SDS011;37283;49.760;8.648;2022-08-02T15:36:27;1.15;;;0.80;;
51216;SDS011;37283;49.760;8.648;2022-08-02T15:38:54;1.38;;;0.80;;
51216;SDS011;37283;49.760;8.648;2022-08-02T15:41:22;1.30;;;0.93;;
51216;SDS011;37283;49.760;8.648;2022-08-02T15:43:49;1.80;;;0.85;;
51216;SDS011;37283;49.760;8.648;2022-08-02T15:46:26;3.17;;;1.00;;
51216;SDS011;37283;49.760;8.648;2022-08-02T15:48:56;2.67;;;1.00;;
51216;SDS011;37283;49.760;8.648;2022-08-02T15:51:22;1.95;;;0.98;;
51216;SDS011;37283;49.760;8.648;2022-08-02T15:53:49;1.25;;;0.80;;
51216;SDS011;37283;49.760;8.648;2022-08-02T15:56:15;2.17;;;0.90;;
51216;SDS011;37283;49.760;8.648;2022-08-02T15:58:47;2.92;;;1.00;;
51216;SDS011;37283;49.760;8.648;2022-08-02T16:01:18;1.98;;;0.82;;
51216;SDS011;37283;49.760;8.648;2022-08-02T16:03:44;2.50;;;0.90;;
51216;SDS011;37283;49.760;8.648;2022-08-02T16:06:11;2.00;;;0.90;;
51216;SDS011;37283;49.760;8.648;2022-08-02T16:08:37;4.90;;;1.15;;
51216;SDS011;37283;49.760;8.648;2022-08-02T16:19:59;1.85;;;1.25;;
51216;SDS011;37283;49.760;8.648;2022-08-02T16:22:25;1.95;;;0.90;;
51216;SDS011;37283;49.760;8.648;2022-08-02T16:24:52;2.85;;;0.70;;
51216;SDS011;37283;49.760;8.648;2022-08-02T16:27:18;1.67;;;0.73;;
51216;SDS011;37283;49.760;8.648;2022-08-02T16:29:45;1.40;;;0.75;;
51216;SDS011;37283;49.760;8.648;2022-08-02T16:32:13;1.92;;;0.82;;
51216;SDS011;37283;49.760;8.648;2022-08-02T16:34:41;2.00;;;0.98;;
51216;SDS011;37283;49.760;8.648;2022-08-02T16:37:28;1.35;;;0.95;;
51216;SDS011;37283;49.760;8.648;2022-08-02T16:40:14;1.70;;;0.82;;
51216;SDS011;37283;49.760;8.648;2022-08-02T16:42:41;2.67;;;0.80;;
51216;SDS011;37283;49.760;8.648;2022-08-02T16:45:16;1.02;;;0.90;;
51216;SDS011;37283;49.760;8.648;2022-08-02T16:47:46;1.85;;;0.90;;
51216;SDS011;37283;49.760;8.648;2022-08-02T16:50:22;2.50;;;1.00;;
51216;SDS011;37283;49.760;8.648;2022-08-02T16:52:53;2.55;;;0.90;;
51216;SDS011;37283;49.760;8.648;2022-08-02T16:55:20;3.75;;;0.98;;
51216;SDS011;37283;49.760;8.648;2022-08-02T16:57:47;4.60;;;1.10;;
51216;SDS011;37283;49.760;8.648;2022-08-02T17:00:15;1.73;;;0.98;;
51216;SDS011;37283;49.760;8.648;2022-08-02T17:02:42;2.63;;;1.10;;
51216;SDS011;37283;49.760;8.648;2022-08-02T17:05:10;0.98;;;0.80;;
51216;SDS011;37283;49.760;8.648;2022-08-02T17:07:39;1.70;;;1.10;;
51216;SDS011;37283;49.760;8.648;2022-08-02T17:10:26;1.98;;;1.00;;
51216;SDS011;37283;49.760;8.648;2022-08-02T17:12:57;2.30;;;0.80;;
51216;SDS011;37283;49.760;8.648;2022-08-02T17:15:44;1.70;;;1.00;;
51216;SDS011;37283;49.760;8.648;2022-08-02T17:18:30;1.67;;;0.82;;
51216;SDS011;37283;49.760;8.648;2022-08-02T17:20:59;2.45;;;1.00;;
51216;SDS011;37283;49.760;8.648;2022-08-02T17:23:29;1.67;;;0.90;;
51216;SDS011;37283;49.760;8.648;2022-08-02T17:26:15;1.75;;;0.90;;
51216;SDS011;37283;49.760;8.648;2022-08-02T17:28:42;2.58;;;0.82;;
51216;SDS011;37283;49.760;8.648;2022-08-02T17:31:28;2.25;;;0.90;;
51216;SDS011;37283;49.760;8.648;2022-08-02T17:34:07;2.70;;;0.80;;
51216;SDS011;37283;49.760;8.648;2022-08-02T17:36:34;4.10;;;1.30;;
51216;SDS011;37283;49.760;8.648;2022-08-02T17:39:00;2.33;;;0.98;;
51216;SDS011;37283;49.760;8.648;2022-08-02T17:41:32;1.83;;;0.90;;
51216;SDS011;37283;49.760;8.648;2022-08-02T17:44:13;5.38;;;1.40;;
51216;SDS011;37283;49.760;8.648;2022-08-02T17:47:00;1.50;;;0.82;;
51216;SDS011;37283;49.760;8.648;2022-08-02T17:49:27;2.63;;;1.02;;
51216;SDS011;37283;49.760;8.648;2022-08-02T17:51:55;1.00;;;0.82;;
51216;SDS011;37283;49.760;8.648;2022-08-02T17:54:41;3.75;;;1.20;;
51216;SDS011;37283;49.760;8.648;2022-08-02T17:57:08;1.52;;;1.08;;
51216;SDS011;37283;49.760;8.648;2022-08-02T17:59:39;3.83;;;1.00;;
51216;SDS011;37283;49.760;8.648;2022-08-02T18:02:07;2.10;;;0.90;;
51216;SDS011;37283;49.760;8.648;2022-08-02T18:04:36;1.92;;;1.10;;
51216;SDS011;37283;49.760;8.648;2022-08-02T18:07:03;3.70;;;1.08;;
51216;SDS011;37283;49.760;8.648;2022-08-02T18:09:35;1.33;;;0.98;;
51216;SDS011;37283;49.760;8.648;2022-08-02T18:12:02;1.10;;;0.95;;
51216;SDS011;37283;49.760;8.648;2022-08-02T18:14:28;1.63;;;0.95;;
51216;SDS011;37283;49.760;8.648;2022-08-02T18:16:55;1.42;;;0.98;;
51216;SDS011;37283;49.760;8.648;2022-08-02T18:19:22;3.28;;;1.13;;
51216;SDS011;37283;49.760;8.648;2022-08-02T18:22:07;2.30;;;0.80;;
51216;SDS011;37283;49.760;8.648;2022-08-02T18:24:35;1.30;;;1.00;;
51216;SDS011;37283;49.760;8.648;2022-08-02T18:27:03;1.05;;;0.80;;
51216;SDS011;37283;49.760;8.648;2022-08-02T18:29:29;1.92;;;0.85;;
51216;SDS011;37283;49.760;8.648;2022-08-02T18:32:04;0.90;;;0.80;;
51216;SDS011;37283;49.760;8.648;2022-08-02T18:34:37;1.17;;;0.90;;
51216;SDS011;37283;49.760;8.648;2022-08-02T18:37:04;1.13;;;1.00;;
51216;SDS011;37283;49.760;8.648;2022-08-02T18:39:31;2.70;;;0.90;;
51216;SDS011;37283;49.760;8.648;2022-08-02T18:42:03;2.92;;;1.35;;
51216;SDS011;37283;49.760;8.648;2022-08-02T18:44:30;2.88;;;0.98;;
51216;SDS011;37283;49.760;8.648;2022-08-02T18:46:56;3.58;;;1.00;;
51216;SDS011;37283;49.760;8.648;2022-08-02T18:49:24;1.05;;;0.90;;
51216;SDS011;37283;49.760;8.648;2022-08-02T18:52:13;1.70;;;1.05;;
51216;SDS011;37283;49.760;8.648;2022-08-02T18:54:40;2.72;;;0.88;;
51216;SDS011;37283;49.760;8.648;2022-08-02T18:57:08;0.93;;;0.80;;
51216;SDS011;37283;49.760;8.648;2022-08-02T18:59:55;3.92;;;0.90;;
51216;SDS011;37283;49.760;8.648;2022-08-02T19:02:22;0.88;;;0.80;;
51216;SDS011;37283;49.760;8.648;2022-08-02T19:04:53;1.90;;;1.10;;
51216;SDS011;37283;49.760;8.648;2022-08-02T19:07:19;1.42;;;1.02;;
51216;SDS011;37283;49.760;8.648;2022-08-02T19:09:47;2.45;;;0.90;;
51216;SDS011;37283;49.760;8.648;2022-08-02T19:12:14;1.60;;;1.08;;
51216;SDS011;37283;49.760;8.648;2022-08-02T19:14:53;1.23;;;0.90;;
51216;SDS011;37283;49.760;8.648;2022-08-02T19:17:21;2.47;;;1.00;;
51216;SDS011;37283;49.760;8.648;2022-08-02T19:20:08;2.65;;;1.10;;
51216;SDS011;37283;49.760;8.648;2022-08-02T19:22:44;2.53;;;0.90;;
51216;SDS011;37283;49.760;8.648;2022-08-02T19:25:11;1.88;;;0.90;;
51216;SDS011;37283;49.760;8.648;2022-08-02T21:05:32;3.33;;;0.90;;
51216;SDS011;37283;49.760;8.648;2022-08-02T21:12:55;1.65;;;1.00;;
51216;SDS011;37283;49.760;8.648;2022-08-02T21:47:28;1.52;;;1.27;;
51216;SDS011;37283;49.760;8.648;2022-08-02T21:51:21;2.25;;;1.35;;
51216;SDS011;37283;49.760;8.648;2022-08-02T21:55:14;2.38;;;1.65;;
51216;SDS011;37283;49.760;8.648;2022-08-02T22:37:11;1.90;;;1.10;;
51216;SDS011;37283;49.760;8.648;2022-08-02T22:44:22;1.40;;;1.17;;
51216;SDS011;37283;49.760;8.648;2022-08-02T22:46:51;1.70;;;1.20;;
51216;SDS011;37283;49.760;8.648;2022-08-02T22:49:19;1.50;;;1.15;;
51216;SDS011;37283;49.760;8.648;2022-08-02T22:52:06;2.65;;;1.20;;
51216;SDS011;37283;49.760;8.648;2022-08-02T22:54:39;3.25;;;1.20;;
51216;SDS011;37283;49.760;8.648;2022-08-02T22:58:14;3.78;;;1.30;;
51216;SDS011;37283;49.760;8.648;2022-08-02T23:00:47;3.05;;;1.30;;
51216;SDS011;37283;49.760;8.648;2022-08-02T23:04:46;2.15;;;1.25;;
51216;SDS011;37283;49.760;8.648;2022-08-02T23:08:05;1.77;;;1.27;;
51216;SDS011;37283;49.760;8.648;2022-08-02T23:17:59;1.85;;;1.00;;
51216;SDS011;37283;49.760;8.648;2022-08-02T23:20:48;2.05;;;1.05;;
51216;SDS011;37283;49.760;8.648;2022-08-02T23:23:22;2.20;;;1.15;;
51216;SDS011;37283;49.760;8.648;2022-08-02T23:26:14;3.08;;;1.42;;
51216;SDS011;37283;49.760;8.648;2022-08-02T23:28:41;1.23;;;1.10;;
51216;SDS011;37283;49.760;8.648;2022-08-02T23:33:57;1.88;;;1.30;;
51216;SDS011;37283;49.760;8.648;2022-08-02T23:36:30;1.42;;;1.10;;
51216;SDS011;37283;49.760;8.648;2022-08-02T23:38:58;1.38;;;1.10;;
51216;SDS011;37283;49.760;8.648;2022-08-02T23:41:25;1.50;;;1.00;;
51216;SDS011;37283;49.760;8.648;2022-08-02T23:43:52;1.75;;;1.20;;
51216;SDS011;37283;49.760;8.648;2022-08-02T23:46:45;1.90;;;1.30;;
51216;SDS011;37283;49.760;8.648;2022-08-02T23:49:12;1.88;;;1.20;;
51216;SDS011;37283;49.760;8.648;2022-08-02T23:56:12;1.42;;;1.17;;
51216;SDS011;37283;49.760;8.648;2022-08-02T23:58:42;1.45;;;1.10;;
